Time;durP1;ratioP1;P1;durP2;ratioP2;P2;SDS_P1;SDS_P2;PMS_P1;PMS_P2;Temp;Humidity;BMP_temperature;BMP_pressure;BME280_temperature;BME280_humidity;BME280_pressure;Samples;Min_cycle;Max_cycle;Signal;HPM_P1;HPM_P2
2024/01/21 00:02:14;;;;;;;36.97;21.63;;;;;;;;;;5051125;28;20025;-57
2024/01/21 00:04:41;;;;;;;39.87;24.13;;;;;;;;;;5051700;28;20360;-57
2024/01/21 00:07:07;;;;;;;39.23;26.93;;;;;;;;;;5051273;28;20127;-58
2024/01/21 00:09:36;;;;;;;45.63;27.60;;;;;;;;;;5049943;28;20080;-56
2024/01/21 00:12:02;;;;;;;39.80;26.83;;;;;;;;;;5051206;28;20029;-57
2024/01/21 00:14:40;;;;;;;47.10;28.67;;;;;;;;;;5051209;28;20033;-56
2024/01/21 00:17:28;;;;;;;39.30;23.70;;;;;;;;;;5043166;28;20025;-58
2024/01/21 00:19:55;;;;;;;32.70;20.97;;;;;;;;;;5049885;28;20027;-58
2024/01/21 00:22:21;;;;;;;34.80;19.23;;;;;;;;;;5051255;28;20047;-59
2024/01/21 00:24:47;;;;;;;26.73;17.90;;;;;;;;;;5053476;28;20492;-59
2024/01/21 00:27:13;;;;;;;28.03;16.87;;;;;;;;;;5053597;28;20049;-57
2024/01/21 00:29:39;;;;;;;26.00;17.57;;;;;;;;;;5055393;28;20032;-58
2024/01/21 00:32:06;;;;;;;27.47;16.73;;;;;;;;;;5055475;28;20029;-58
2024/01/21 00:34:32;;;;;;;19.90;14.00;;;;;;;;;;5048997;28;20165;-59
2024/01/21 00:36:58;;;;;;;16.63;12.43;;;;;;;;;;5055059;28;20064;-56
2024/01/21 00:39:24;;;;;;;15.77;10.87;;;;;;;;;;5053813;28;20036;-59
2024/01/21 00:41:50;;;;;;;17.20;11.40;;;;;;;;;;5054928;28;20120;-59
2024/01/21 00:44:18;;;;;;;19.70;12.17;;;;;;;;;;5053690;28;20060;-58
2024/01/21 00:46:44;;;;;;;15.30;11.37;;;;;;;;;;5054707;28;20075;-59
2024/01/21 00:49:10;;;;;;;18.67;11.87;;;;;;;;;;5054862;28;20045;-58
2024/01/21 00:51:36;;;;;;;20.43;12.03;;;;;;;;;;5055298;28;20033;-58
2024/01/21 00:54:02;;;;;;;13.03;10.73;;;;;;;;;;5055088;28;20404;-57
2024/01/21 00:56:28;;;;;;;16.70;11.47;;;;;;;;;;5053468;28;20031;-59
2024/01/21 00:58:54;;;;;;;15.80;11.27;;;;;;;;;;5054790;28;20025;-59
2024/01/21 01:01:20;;;;;;;13.70;10.03;;;;;;;;;;5049944;28;20074;-58
2024/01/21 01:03:46;;;;;;;14.80;10.23;;;;;;;;;;5052275;28;20055;-58
2024/01/21 01:06:12;;;;;;;13.27;9.93;;;;;;;;;;5054770;28;20059;-58
2024/01/21 01:08:38;;;;;;;12.37;10.30;;;;;;;;;;5050563;28;20044;-57
2024/01/21 01:11:04;;;;;;;14.20;10.10;;;;;;;;;;5044722;28;20029;-58
2024/01/21 01:13:30;;;;;;;12.47;9.43;;;;;;;;;;5053076;28;20022;-58
2024/01/21 01:15:58;;;;;;;11.70;8.87;;;;;;;;;;5054234;28;20158;-58
2024/01/21 01:18:24;;;;;;;11.10;9.33;;;;;;;;;;5054645;28;20017;-59
2024/01/21 01:20:51;;;;;;;10.63;8.93;;;;;;;;;;5052969;28;20040;-58
2024/01/21 01:23:17;;;;;;;14.97;9.57;;;;;;;;;;5051284;28;20026;-58
2024/01/21 01:25:43;;;;;;;13.70;9.40;;;;;;;;;;5045624;28;20043;-58
2024/01/21 01:28:09;;;;;;;16.33;9.07;;;;;;;;;;5052756;28;20502;-56
2024/01/21 01:30:36;;;;;;;13.93;10.17;;;;;;;;;;5054589;28;20108;-58
2024/01/21 01:33:02;;;;;;;11.27;9.50;;;;;;;;;;5054141;28;20355;-56
2024/01/21 01:35:28;;;;;;;12.70;9.40;;;;;;;;;;5053586;28;20044;-60
2024/01/21 01:37:54;;;;;;;15.30;10.57;;;;;;;;;;5054278;28;20029;-57
2024/01/21 01:40:20;;;;;;;20.13;12.07;;;;;;;;;;5052756;28;20029;-59
2024/01/21 01:42:56;;;;;;;17.93;11.07;;;;;;;;;;5052575;28;20059;-59
2024/01/21 01:45:25;;;;;;;16.13;10.83;;;;;;;;;;5053537;28;20017;-57
2024/01/21 01:47:51;;;;;;;15.67;9.93;;;;;;;;;;5052878;28;20083;-58
2024/01/21 01:50:18;;;;;;;15.10;10.77;;;;;;;;;;5051443;28;20075;-58
2024/01/21 01:52:44;;;;;;;12.30;9.77;;;;;;;;;;5052561;28;20025;-56
2024/01/21 01:55:10;;;;;;;12.30;8.80;;;;;;;;;;5052599;28;20024;-59
2024/01/21 01:57:37;;;;;;;11.90;9.33;;;;;;;;;;5046912;28;20025;-58
2024/01/21 02:00:06;;;;;;;15.97;9.60;;;;;;;;;;5052702;28;20033;-59
2024/01/21 02:02:32;;;;;;;11.60;8.83;;;;;;;;;;5052636;28;20028;-58
2024/01/21 02:04:59;;;;;;;11.53;9.13;;;;;;;;;;5044971;28;20379;-59
2024/01/21 02:07:25;;;;;;;11.57;8.73;;;;;;;;;;5043096;28;20133;-58
2024/01/21 02:09:51;;;;;;;13.23;8.97;;;;;;;;;;5049748;28;20068;-59
2024/01/21 02:12:18;;;;;;;12.93;8.70;;;;;;;;;;5052324;28;20489;-59
2024/01/21 02:14:44;;;;;;;8.77;7.87;;;;;;;;;;5052080;28;20028;-59
2024/01/21 02:17:10;;;;;;;11.23;8.63;;;;;;;;;;5051435;28;20036;-58
2024/01/21 02:19:38;;;;;;;12.17;8.90;;;;;;;;;;5051946;28;20021;-58
2024/01/21 02:22:04;;;;;;;11.80;8.87;;;;;;;;;;5050159;28;20697;-59
2024/01/21 02:24:31;;;;;;;10.23;8.30;;;;;;;;;;5042765;28;20029;-58
2024/01/21 02:26:57;;;;;;;8.83;7.10;;;;;;;;;;5052205;28;20065;-58
2024/01/21 02:29:24;;;;;;;11.00;7.63;;;;;;;;;;5051997;28;20024;-59
2024/01/21 02:31:51;;;;;;;13.87;8.70;;;;;;;;;;5051296;28;20374;-59
2024/01/21 02:34:17;;;;;;;12.03;8.23;;;;;;;;;;5049980;28;20021;-56
2024/01/21 02:36:43;;;;;;;11.30;8.47;;;;;;;;;;5051037;28;20017;-58
2024/01/21 02:39:09;;;;;;;8.87;7.40;;;;;;;;;;5051578;28;20095;-58
2024/01/21 02:41:35;;;;;;;11.17;8.53;;;;;;;;;;5051161;28;20343;-59
2024/01/21 02:44:01;;;;;;;10.47;7.47;;;;;;;;;;5051589;28;20147;-59
2024/01/21 02:49:12;;;;;;;10.63;7.85;;;;;;;;;;4988555;28;1494143;-58
2024/01/21 02:51:38;;;;;;;12.37;8.37;;;;;;;;;;5051391;28;20536;-59
2024/01/21 02:54:04;;;;;;;13.07;9.33;;;;;;;;;;5052507;28;20029;-58
2024/01/21 02:56:30;;;;;;;11.97;8.50;;;;;;;;;;5052917;28;20033;-59
2024/01/21 02:58:56;;;;;;;9.17;7.83;;;;;;;;;;5052601;28;20021;-57
2024/01/21 03:07:29;;;;;;;15.07;10.07;;;;;;;;;;5043699;28;20521;-59
2024/01/21 03:09:58;;;;;;;15.17;11.53;;;;;;;;;;5039104;28;20114;-59
2024/01/21 03:12:28;;;;;;;16.00;12.00;;;;;;;;;;5050908;28;20032;-59
2024/01/21 03:14:54;;;;;;;19.87;12.90;;;;;;;;;;5040548;28;20052;-58
2024/01/21 03:17:21;;;;;;;16.33;12.57;;;;;;;;;;5041274;28;20045;-59
2024/01/21 03:19:47;;;;;;;14.47;11.67;;;;;;;;;;5048023;28;20092;-59
2024/01/21 03:25:16;;;;;;;15.93;12.00;;;;;;;;;;5041633;28;20124;-58
2024/01/21 03:27:42;;;;;;;17.57;12.40;;;;;;;;;;5051274;28;20049;-58
2024/01/21 03:30:09;;;;;;;16.43;12.83;;;;;;;;;;5051609;28;20082;-60
2024/01/21 03:32:35;;;;;;;19.67;12.43;;;;;;;;;;5050961;28;20128;-56
2024/01/21 03:35:01;;;;;;;18.40;12.77;;;;;;;;;;5038970;28;20702;-58
2024/01/21 03:37:27;;;;;;;17.83;12.63;;;;;;;;;;5031063;28;20037;-58
2024/01/21 03:39:53;;;;;;;19.53;12.20;;;;;;;;;;5033353;28;20032;-59
2024/01/21 03:42:18;;;;;;;21.20;12.37;;;;;;;;;;5031925;28;20091;-58
2024/01/21 03:44:47;;;;;;;18.07;12.40;;;;;;;;;;5037066;28;20473;-59
2024/01/21 03:47:15;;;;;;;18.53;12.57;;;;;;;;;;5049154;28;20487;-59
2024/01/21 03:49:41;;;;;;;15.93;12.30;;;;;;;;;;5041651;28;20247;-59
2024/01/21 03:52:07;;;;;;;19.47;12.23;;;;;;;;;;5032252;28;20546;-59
2024/01/21 03:54:33;;;;;;;17.13;13.10;;;;;;;;;;5047771;28;20113;-59
2024/01/21 03:56:59;;;;;;;18.13;13.00;;;;;;;;;;5051079;28;20017;-55
2024/01/21 03:59:25;;;;;;;17.53;12.40;;;;;;;;;;5045976;28;20026;-58
2024/01/21 04:01:51;;;;;;;17.43;12.40;;;;;;;;;;5034818;28;20034;-58
2024/01/21 04:04:17;;;;;;;18.73;12.00;;;;;;;;;;5048188;28;20163;-57
2024/01/21 04:06:44;;;;;;;18.47;12.17;;;;;;;;;;5044899;28;20124;-58
2024/01/21 04:09:12;;;;;;;22.27;11.43;;;;;;;;;;5031058;28;20048;-58
2024/01/21 04:11:38;;;;;;;15.43;11.83;;;;;;;;;;5049509;28;20116;-57
2024/01/21 04:14:04;;;;;;;16.60;12.00;;;;;;;;;;5050452;28;20037;-59
2024/01/21 04:16:31;;;;;;;15.60;10.73;;;;;;;;;;5050837;28;20104;-59
2024/01/21 04:18:56;;;;;;;18.33;12.53;;;;;;;;;;5042472;28;20041;-58
2024/01/21 04:21:22;;;;;;;14.57;11.47;;;;;;;;;;5041447;28;20029;-58
2024/01/21 04:23:48;;;;;;;17.77;11.70;;;;;;;;;;5050498;28;20041;-59
2024/01/21 04:26:15;;;;;;;17.90;11.83;;;;;;;;;;5048439;28;20040;-59
2024/01/21 04:28:41;;;;;;;14.73;10.87;;;;;;;;;;5037507;28;20052;-58
2024/01/21 04:31:08;;;;;;;13.20;10.97;;;;;;;;;;5050332;28;20058;-58
2024/01/21 04:33:36;;;;;;;15.60;10.97;;;;;;;;;;5049500;28;20032;-58
2024/01/21 04:36:03;;;;;;;18.23;11.00;;;;;;;;;;5050229;28;20041;-57
2024/01/21 04:38:29;;;;;;;18.97;10.87;;;;;;;;;;5046398;28;20018;-58
2024/01/21 04:40:55;;;;;;;14.43;10.70;;;;;;;;;;5033045;28;20037;-55
2024/01/21 04:46:40;;;;;;;14.00;11.03;;;;;;;;;;5045374;28;20125;-58
2024/01/21 04:49:06;;;;;;;15.70;10.30;;;;;;;;;;5038319;28;20100;-56
2024/01/21 04:51:32;;;;;;;15.77;10.40;;;;;;;;;;5049718;28;20049;-57
2024/01/21 04:53:58;;;;;;;14.57;10.13;;;;;;;;;;5038835;28;20036;-56
2024/01/21 04:56:24;;;;;;;13.70;9.50;;;;;;;;;;5034484;28;20053;-57
2024/01/21 04:58:50;;;;;;;14.17;9.80;;;;;;;;;;5035088;28;20069;-55
2024/01/21 05:01:17;;;;;;;17.80;11.37;;;;;;;;;;5039626;28;20064;-57
2024/01/21 05:03:44;;;;;;;13.30;9.80;;;;;;;;;;5050327;28;22070;-57
2024/01/21 05:06:10;;;;;;;14.53;9.93;;;;;;;;;;5049970;28;20096;-58
2024/01/21 05:11:40;;;;;;;15.63;9.80;;;;;;;;;;5047011;28;20113;-57
2024/01/21 05:14:06;;;;;;;15.67;9.63;;;;;;;;;;5053214;28;20152;-58
2024/01/21 05:16:32;;;;;;;13.50;9.67;;;;;;;;;;5053030;28;20063;-57
2024/01/21 05:18:58;;;;;;;15.60;10.57;;;;;;;;;;5053021;28;20025;-56
2024/01/21 05:21:24;;;;;;;14.10;10.17;;;;;;;;;;5038089;28;20029;-58
2024/01/21 05:23:51;;;;;;;11.47;8.50;;;;;;;;;;5052788;28;20479;-56
2024/01/21 05:26:17;;;;;;;11.33;8.87;;;;;;;;;;5052816;28;20033;-57
2024/01/21 05:28:44;;;;;;;12.57;9.20;;;;;;;;;;5052928;28;20040;-56
2024/01/21 05:31:10;;;;;;;11.90;9.20;;;;;;;;;;5052505;28;20017;-56
2024/01/21 05:33:38;;;;;;;12.20;9.43;;;;;;;;;;5052499;28;20099;-58
2024/01/21 05:36:04;;;;;;;14.07;9.63;;;;;;;;;;5052461;28;20123;-55
2024/01/21 05:38:30;;;;;;;12.73;8.83;;;;;;;;;;5052460;28;20041;-59
2024/01/21 05:40:56;;;;;;;13.17;8.97;;;;;;;;;;5052488;28;20390;-57
2024/01/21 05:43:31;;;;;;;13.97;9.27;;;;;;;;;;5052050;28;20052;-57
2024/01/21 05:45:57;;;;;;;12.57;8.60;;;;;;;;;;5050979;28;20033;-58
2024/01/21 05:48:23;;;;;;;15.90;9.47;;;;;;;;;;5051978;28;20076;-57
2024/01/21 05:50:49;;;;;;;10.97;8.37;;;;;;;;;;5052157;28;20033;-58
2024/01/21 05:53:15;;;;;;;11.53;8.67;;;;;;;;;;5051990;28;20062;-58
2024/01/21 05:55:41;;;;;;;11.13;8.77;;;;;;;;;;5050665;28;20088;-57
2024/01/21 05:58:07;;;;;;;11.03;8.43;;;;;;;;;;5051946;28;20079;-58
2024/01/21 06:00:33;;;;;;;11.03;8.50;;;;;;;;;;5052118;28;20202;-58
2024/01/21 06:02:59;;;;;;;15.70;8.63;;;;;;;;;;5052186;28;20395;-57
2024/01/21 06:05:25;;;;;;;12.20;8.90;;;;;;;;;;5051437;28;20657;-57
2024/01/21 06:07:51;;;;;;;11.93;8.37;;;;;;;;;;5050175;28;20102;-58
2024/01/21 06:10:17;;;;;;;12.67;9.30;;;;;;;;;;5051796;28;20128;-58
2024/01/21 06:12:43;;;;;;;14.53;8.83;;;;;;;;;;5051931;28;20162;-58
2024/01/21 06:15:11;;;;;;;10.77;8.13;;;;;;;;;;5051695;28;20075;-56
2024/01/21 06:17:46;;;;;;;10.03;7.87;;;;;;;;;;5051386;28;20037;-56
2024/01/21 06:20:12;;;;;;;14.87;9.00;;;;;;;;;;5051504;28;20056;-57
2024/01/21 06:22:38;;;;;;;12.50;8.87;;;;;;;;;;5050354;28;20025;-58
2024/01/21 06:25:04;;;;;;;14.93;10.40;;;;;;;;;;5050521;28;20473;-58
2024/01/21 06:27:30;;;;;;;15.63;10.27;;;;;;;;;;5042140;28;20180;-57
2024/01/21 06:29:56;;;;;;;14.17;11.20;;;;;;;;;;5031743;28;20521;-57
2024/01/21 06:32:28;;;;;;;17.33;11.67;;;;;;;;;;5048189;28;20025;-58
2024/01/21 06:34:55;;;;;;;18.50;13.53;;;;;;;;;;5050952;28;20572;-58
2024/01/21 06:37:21;;;;;;;18.20;13.47;;;;;;;;;;5051585;28;20027;-57
2024/01/21 06:39:47;;;;;;;18.80;13.73;;;;;;;;;;5045943;28;20033;-59
2024/01/21 06:42:13;;;;;;;15.33;12.20;;;;;;;;;;5044474;28;20037;-56
2024/01/21 06:44:41;;;;;;;22.33;13.40;;;;;;;;;;5051308;28;20021;-58
2024/01/21 06:47:07;;;;;;;18.23;12.90;;;;;;;;;;5051576;28;20048;-58
2024/01/21 06:49:33;;;;;;;16.13;12.33;;;;;;;;;;5050852;28;20144;-58
2024/01/21 06:51:59;;;;;;;17.73;12.47;;;;;;;;;;5049421;28;20064;-58
2024/01/21 06:54:25;;;;;;;18.13;11.93;;;;;;;;;;5049820;28;20379;-57
2024/01/21 06:56:51;;;;;;;17.80;12.63;;;;;;;;;;5050930;28;20083;-57
2024/01/21 06:59:17;;;;;;;15.97;11.83;;;;;;;;;;5050999;28;20082;-57
2024/01/21 07:01:43;;;;;;;17.60;12.83;;;;;;;;;;5049174;28;20048;-55
2024/01/21 07:04:10;;;;;;;13.17;8.97;;;;;;;;;;5050829;28;20033;-58
2024/01/21 07:06:36;;;;;;;13.90;8.93;;;;;;;;;;5052757;28;20051;-58
2024/01/21 07:09:02;;;;;;;12.17;8.50;;;;;;;;;;5052628;28;20020;-61
2024/01/21 07:11:28;;;;;;;10.60;8.00;;;;;;;;;;5052392;28;20017;-58
2024/01/21 07:13:54;;;;;;;10.57;7.33;;;;;;;;;;5052309;28;20028;-58
2024/01/21 07:16:20;;;;;;;10.30;7.83;;;;;;;;;;5052444;28;20064;-58
2024/01/21 07:18:46;;;;;;;14.43;8.50;;;;;;;;;;5051015;28;20051;-58
2024/01/21 07:21:12;;;;;;;12.60;8.43;;;;;;;;;;5052342;28;20032;-56
2024/01/21 07:23:38;;;;;;;8.53;7.27;;;;;;;;;;5050978;28;20048;-56
2024/01/21 07:26:10;;;;;;;11.93;7.90;;;;;;;;;;5051078;28;20044;-57
2024/01/21 07:28:36;;;;;;;11.33;7.60;;;;;;;;;;5052346;28;20031;-57
2024/01/21 07:31:02;;;;;;;10.63;7.40;;;;;;;;;;5050820;28;20029;-58
2024/01/21 07:33:28;;;;;;;13.50;8.43;;;;;;;;;;5051684;28;20036;-58
2024/01/21 07:35:54;;;;;;;14.73;8.80;;;;;;;;;;5052133;28;20033;-59
2024/01/21 07:38:20;;;;;;;11.27;8.40;;;;;;;;;;5050547;28;20021;-57
2024/01/21 07:40:47;;;;;;;17.73;10.57;;;;;;;;;;5051894;28;20079;-58
2024/01/21 07:43:19;;;;;;;16.17;11.60;;;;;;;;;;5051905;28;20467;-58
2024/01/21 07:45:45;;;;;;;17.23;12.00;;;;;;;;;;5052225;28;20086;-58
2024/01/21 07:48:11;;;;;;;19.27;12.47;;;;;;;;;;5051613;28;20048;-58
2024/01/21 07:50:37;;;;;;;18.10;12.00;;;;;;;;;;5052272;28;20112;-59
2024/01/21 07:53:03;;;;;;;17.47;12.10;;;;;;;;;;5051717;28;20486;-58
2024/01/21 07:55:29;;;;;;;19.33;12.27;;;;;;;;;;5052213;28;20078;-58
2024/01/21 07:57:55;;;;;;;18.47;13.40;;;;;;;;;;5051463;28;20029;-58
2024/01/21 08:00:22;;;;;;;16.43;12.83;;;;;;;;;;5032747;28;20028;-59
2024/01/21 08:02:51;;;;;;;16.17;12.47;;;;;;;;;;5051771;28;20040;-58
2024/01/21 08:05:17;;;;;;;19.33;13.90;;;;;;;;;;5051993;28;20044;-59
2024/01/21 08:07:43;;;;;;;14.33;11.60;;;;;;;;;;5050748;28;20040;-58
2024/01/21 08:10:15;;;;;;;18.30;12.63;;;;;;;;;;5050812;28;20029;-59
2024/01/21 08:12:41;;;;;;;18.23;13.60;;;;;;;;;;5049791;28;20139;-59
2024/01/21 08:15:07;;;;;;;18.87;13.07;;;;;;;;;;5049830;28;20104;-59
2024/01/21 08:17:33;;;;;;;15.93;10.63;;;;;;;;;;5049755;28;20025;-70
2024/01/21 08:19:59;;;;;;;13.70;11.17;;;;;;;;;;5032413;28;20498;-71
2024/01/21 08:22:25;;;;;;;14.93;10.30;;;;;;;;;;5031491;28;20029;-71
2024/01/21 08:24:54;;;;;;;14.60;10.17;;;;;;;;;;5031748;28;20072;-70
2024/01/21 08:27:20;;;;;;;13.40;10.43;;;;;;;;;;5031562;28;20463;-70
2024/01/21 08:29:46;;;;;;;13.07;10.03;;;;;;;;;;5031826;28;20021;-70
2024/01/21 08:32:12;;;;;;;12.77;9.80;;;;;;;;;;5031211;28;20032;-70
2024/01/21 08:34:38;;;;;;;15.13;9.73;;;;;;;;;;5031733;28;20014;-70
2024/01/21 08:37:05;;;;;;;15.77;10.23;;;;;;;;;;5031541;28;20029;-70
2024/01/21 08:39:40;;;;;;;21.97;12.60;;;;;;;;;;5031513;28;20379;-71
2024/01/21 08:42:12;;;;;;;14.87;10.07;;;;;;;;;;5029601;28;20044;-67
2024/01/21 08:44:38;;;;;;;13.57;10.20;;;;;;;;;;5030913;28;20091;-67
2024/01/21 08:47:04;;;;;;;10.90;8.53;;;;;;;;;;5035442;28;20463;-67
2024/01/21 08:49:30;;;;;;;9.53;7.60;;;;;;;;;;5035022;28;20049;-67
2024/01/21 08:51:56;;;;;;;13.37;8.70;;;;;;;;;;5035209;28;20040;-67
2024/01/21 08:54:22;;;;;;;10.53;7.73;;;;;;;;;;5034977;28;20467;-67
2024/01/21 08:56:48;;;;;;;11.27;7.80;;;;;;;;;;5035320;28;20038;-66
2024/01/21 08:59:14;;;;;;;10.27;7.00;;;;;;;;;;5035283;28;20035;-66
2024/01/21 09:01:40;;;;;;;8.57;7.13;;;;;;;;;;5034936;28;20108;-65
2024/01/21 09:04:06;;;;;;;10.43;7.70;;;;;;;;;;5033555;28;20048;-66
2024/01/21 09:06:32;;;;;;;9.40;7.00;;;;;;;;;;5035028;28;20048;-65
2024/01/21 09:08:58;;;;;;;10.80;6.90;;;;;;;;;;5035350;28;20045;-66
2024/01/21 09:11:25;;;;;;;9.17;7.03;;;;;;;;;;5035185;28;20069;-65
2024/01/21 09:13:51;;;;;;;10.30;7.30;;;;;;;;;;5044337;28;20095;-65
2024/01/21 09:16:19;;;;;;;8.73;6.40;;;;;;;;;;5052336;28;20439;-65
2024/01/21 09:18:46;;;;;;;8.07;5.80;;;;;;;;;;5052108;28;20391;-66
2024/01/21 09:21:13;;;;;;;9.40;7.07;;;;;;;;;;5050236;28;20025;-66
2024/01/21 09:23:47;;;;;;;10.23;6.63;;;;;;;;;;5051386;28;20035;-66
2024/01/21 09:26:13;;;;;;;9.17;5.97;;;;;;;;;;5050748;28;20032;-65
2024/01/21 09:28:39;;;;;;;9.67;6.90;;;;;;;;;;5051302;28;20044;-66
2024/01/21 09:31:05;;;;;;;7.40;6.27;;;;;;;;;;5050850;28;20438;-66
2024/01/21 09:33:31;;;;;;;7.43;6.40;;;;;;;;;;5031701;28;20029;-66
2024/01/21 09:35:57;;;;;;;9.47;6.57;;;;;;;;;;5032199;28;20036;-66
2024/01/21 09:38:23;;;;;;;10.43;6.00;;;;;;;;;;5044464;28;20057;-66
2024/01/21 09:40:53;;;;;;;7.70;5.90;;;;;;;;;;5048989;28;20102;-66
2024/01/21 09:43:22;;;;;;;8.40;6.27;;;;;;;;;;5032158;28;20022;-66
2024/01/21 09:45:48;;;;;;;7.50;6.03;;;;;;;;;;5031284;28;20056;-65
2024/01/21 09:48:15;;;;;;;7.60;5.63;;;;;;;;;;5030659;28;20107;-65
2024/01/21 09:50:42;;;;;;;11.00;5.43;;;;;;;;;;5031855;28;20048;-65
2024/01/21 09:53:08;;;;;;;8.03;5.60;;;;;;;;;;5032081;28;20530;-65
2024/01/21 09:55:34;;;;;;;7.03;4.87;;;;;;;;;;5032396;28;20030;-65
2024/01/21 09:58:02;;;;;;;8.47;6.13;;;;;;;;;;5032274;28;20026;-65
2024/01/21 10:00:29;;;;;;;8.03;5.50;;;;;;;;;;5031871;28;20071;-63
2024/01/21 10:02:55;;;;;;;8.60;5.77;;;;;;;;;;5030575;28;20055;-61
2024/01/21 10:05:21;;;;;;;7.03;6.07;;;;;;;;;;5031653;28;20160;-61
2024/01/21 10:07:47;;;;;;;9.67;6.37;;;;;;;;;;5029872;28;20128;-62
2024/01/21 10:10:14;;;;;;;8.87;6.23;;;;;;;;;;5031935;28;20022;-62
2024/01/21 10:12:40;;;;;;;9.07;6.40;;;;;;;;;;5031942;28;20246;-62
2024/01/21 10:15:06;;;;;;;7.80;5.83;;;;;;;;;;5032012;28;20013;-62
2024/01/21 10:17:32;;;;;;;8.53;6.33;;;;;;;;;;5032502;28;20029;-63
2024/01/21 10:19:58;;;;;;;10.33;6.50;;;;;;;;;;5031720;28;20033;-62
2024/01/21 10:22:25;;;;;;;10.40;6.87;;;;;;;;;;5030186;28;20394;-63
2024/01/21 10:24:51;;;;;;;11.83;7.17;;;;;;;;;;5031771;28;20029;-63
2024/01/21 10:27:18;;;;;;;11.67;7.37;;;;;;;;;;5031653;28;20033;-63
2024/01/21 10:29:45;;;;;;;9.67;6.83;;;;;;;;;;5031097;28;20032;-62
2024/01/21 10:32:12;;;;;;;10.43;6.70;;;;;;;;;;5031327;28;20037;-63
2024/01/21 10:34:51;;;;;;;9.83;6.97;;;;;;;;;;5031342;28;20029;-64
2024/01/21 10:37:18;;;;;;;9.43;7.10;;;;;;;;;;5031625;28;20477;-64
2024/01/21 10:39:45;;;;;;;9.10;7.57;;;;;;;;;;5031537;28;20030;-63
2024/01/21 10:42:13;;;;;;;9.60;7.47;;;;;;;;;;5031849;28;20029;-61
2024/01/21 10:44:39;;;;;;;10.80;8.07;;;;;;;;;;5030982;28;20083;-61
2024/01/21 10:47:05;;;;;;;15.20;8.67;;;;;;;;;;5031107;28;20037;-62
2024/01/21 10:49:32;;;;;;;9.90;8.00;;;;;;;;;;5030432;28;20476;-62
2024/01/21 10:51:59;;;;;;;11.53;8.30;;;;;;;;;;5031349;28;20033;-62
2024/01/21 10:54:46;;;;;;;11.87;8.43;;;;;;;;;;5031132;28;20037;-62
2024/01/21 10:57:13;;;;;;;10.70;8.53;;;;;;;;;;5033121;28;20328;-62
2024/01/21 10:59:39;;;;;;;10.87;8.93;;;;;;;;;;5032745;28;20056;-61
2024/01/21 11:02:06;;;;;;;11.13;8.57;;;;;;;;;;5032815;28;20475;-62
2024/01/21 11:04:50;;;;;;;10.93;8.60;;;;;;;;;;5032701;28;20037;-61
2024/01/21 11:07:17;;;;;;;10.67;8.07;;;;;;;;;;5032656;28;20444;-62
2024/01/21 11:09:43;;;;;;;11.47;8.97;;;;;;;;;;5032535;28;20068;-62
2024/01/21 11:12:10;;;;;;;10.33;8.67;;;;;;;;;;5033003;28;20433;-62
2024/01/21 11:14:37;;;;;;;10.73;8.50;;;;;;;;;;5032348;28;20494;-62
2024/01/21 11:17:10;;;;;;;12.10;8.73;;;;;;;;;;5032400;28;20033;-63
2024/01/21 11:19:56;;;;;;;11.43;8.97;;;;;;;;;;5032452;28;20025;-61
2024/01/21 11:22:23;;;;;;;12.60;8.82;;;;;;;;;;5030978;28;20400;-61
2024/01/21 11:24:52;;;;;;;9.53;8.33;;;;;;;;;;5032458;28;20471;-63
2024/01/21 11:27:20;;;;;;;9.57;8.47;;;;;;;;;;5032435;28;20169;-62
2024/01/21 11:29:50;;;;;;;11.07;8.87;;;;;;;;;;5032226;28;20100;-62
2024/01/21 11:32:34;;;;;;;12.27;8.77;;;;;;;;;;5032233;28;20037;-62
2024/01/21 11:35:10;;;;;;;13.43;9.23;;;;;;;;;;5032072;28;20017;-62
2024/01/21 11:37:36;;;;;;;11.50;9.53;;;;;;;;;;5032374;28;20025;-62
2024/01/21 11:40:03;;;;;;;13.57;9.50;;;;;;;;;;5032272;28;20187;-62
2024/01/21 11:42:32;;;;;;;12.30;9.17;;;;;;;;;;5031968;28;20021;-62
2024/01/21 11:45:03;;;;;;;11.17;9.37;;;;;;;;;;5032077;28;20033;-62
2024/01/21 11:47:29;;;;;;;11.83;9.10;;;;;;;;;;5031963;28;20042;-61
2024/01/21 11:49:55;;;;;;;11.53;10.00;;;;;;;;;;5032578;28;20038;-61
2024/01/21 11:52:22;;;;;;;14.17;10.30;;;;;;;;;;5031907;28;20372;-61
2024/01/21 11:54:48;;;;;;;12.20;10.27;;;;;;;;;;5032109;28;20036;-61
2024/01/21 11:57:15;;;;;;;12.53;10.63;;;;;;;;;;5032098;28;20033;-61
2024/01/21 11:59:41;;;;;;;11.53;10.33;;;;;;;;;;5051632;28;20024;-61
2024/01/21 12:02:10;;;;;;;14.07;10.70;;;;;;;;;;5050356;28;20119;-61
2024/01/21 12:04:39;;;;;;;15.73;9.97;;;;;;;;;;5051945;28;20021;-63
2024/01/21 12:07:05;;;;;;;12.40;10.27;;;;;;;;;;5049818;28;20103;-63
2024/01/21 12:09:31;;;;;;;12.47;11.17;;;;;;;;;;5050874;28;20025;-63
2024/01/21 12:12:01;;;;;;;16.50;11.10;;;;;;;;;;5051737;28;20052;-64
2024/01/21 12:14:27;;;;;;;17.47;11.17;;;;;;;;;;5051238;28;20056;-64
2024/01/21 12:16:54;;;;;;;13.47;11.33;;;;;;;;;;5051693;28;20029;-63
2024/01/21 12:19:21;;;;;;;14.43;11.37;;;;;;;;;;5052769;28;20589;-63
2024/01/21 12:21:47;;;;;;;16.90;11.80;;;;;;;;;;5055962;28;20494;-63
2024/01/21 12:24:14;;;;;;;15.80;11.13;;;;;;;;;;5055650;28;20096;-68
2024/01/21 12:26:40;;;;;;;16.00;11.67;;;;;;;;;;5055046;28;20036;-64
2024/01/21 12:29:10;;;;;;;14.50;10.80;;;;;;;;;;5055520;28;20025;-64
2024/01/21 12:31:40;;;;;;;16.50;11.03;;;;;;;;;;5055621;28;20040;-64
2024/01/21 12:34:07;;;;;;;17.87;11.80;;;;;;;;;;5055548;28;20029;-64
2024/01/21 12:36:37;;;;;;;13.03;11.17;;;;;;;;;;5056377;28;20045;-64
2024/01/21 12:39:06;;;;;;;16.80;11.70;;;;;;;;;;5055795;28;20059;-64
2024/01/21 12:41:33;;;;;;;15.80;11.50;;;;;;;;;;5054850;28;20107;-64
2024/01/21 12:43:59;;;;;;;16.40;11.83;;;;;;;;;;5054666;28;20021;-64
2024/01/21 12:46:25;;;;;;;15.00;11.83;;;;;;;;;;5054450;28;20527;-64
2024/01/21 12:48:52;;;;;;;16.67;12.07;;;;;;;;;;5054522;28;20058;-64
2024/01/21 12:51:18;;;;;;;14.10;11.93;;;;;;;;;;5054683;28;20139;-64
2024/01/21 12:53:45;;;;;;;16.67;11.77;;;;;;;;;;5053626;28;20076;-64
2024/01/21 12:56:11;;;;;;;15.70;11.43;;;;;;;;;;5055163;28;20106;-64
2024/01/21 12:58:37;;;;;;;16.00;11.70;;;;;;;;;;5053584;28;20155;-63
2024/01/21 13:01:04;;;;;;;14.23;11.43;;;;;;;;;;5054814;28;20029;-63
2024/01/21 13:03:30;;;;;;;14.63;12.60;;;;;;;;;;5053668;28;20108;-63
2024/01/21 13:05:56;;;;;;;16.27;14.23;;;;;;;;;;5055785;28;20037;-63
2024/01/21 13:08:23;;;;;;;17.20;14.17;;;;;;;;;;5053403;28;20033;-64
2024/01/21 13:10:50;;;;;;;18.30;14.60;;;;;;;;;;5054758;28;20451;-58
2024/01/21 13:13:18;;;;;;;17.63;15.67;;;;;;;;;;5055070;28;20418;-60
2024/01/21 13:15:46;;;;;;;17.97;15.40;;;;;;;;;;5054827;28;20087;-60
2024/01/21 13:18:12;;;;;;;18.17;15.43;;;;;;;;;;5053376;28;20025;-60
2024/01/21 13:20:41;;;;;;;19.23;15.37;;;;;;;;;;5054888;28;20040;-57
2024/01/21 13:23:07;;;;;;;17.33;14.17;;;;;;;;;;5054881;28;20025;-57
2024/01/21 13:25:35;;;;;;;17.03;14.97;;;;;;;;;;5054615;28;20087;-58
2024/01/21 13:30:46;;;;;;;16.88;14.38;;;;;;;;;;5053956;28;20071;-63
2024/01/21 13:33:15;;;;;;;16.93;14.27;;;;;;;;;;5053862;28;20394;-63
2024/01/21 13:35:42;;;;;;;16.17;13.07;;;;;;;;;;5051717;28;20025;-61
2024/01/21 13:38:09;;;;;;;13.97;12.53;;;;;;;;;;5054346;28;20097;-61
2024/01/21 13:40:35;;;;;;;15.47;11.53;;;;;;;;;;5054363;28;20417;-60
2024/01/21 13:43:01;;;;;;;12.17;10.90;;;;;;;;;;5053298;28;20158;-60
2024/01/21 13:45:27;;;;;;;14.63;10.27;;;;;;;;;;5054086;28;20146;-60
2024/01/21 13:47:53;;;;;;;10.27;9.00;;;;;;;;;;5047481;28;20388;-60
2024/01/21 13:50:22;;;;;;;11.80;9.27;;;;;;;;;;5049367;28;20466;-60
2024/01/21 13:52:48;;;;;;;9.93;7.83;;;;;;;;;;5054763;28;20036;-60
2024/01/21 13:55:14;;;;;;;8.07;6.90;;;;;;;;;;5051567;28;20048;-61
2024/01/21 13:57:40;;;;;;;9.10;7.27;;;;;;;;;;5033080;28;20021;-61
2024/01/21 14:00:07;;;;;;;8.73;7.00;;;;;;;;;;5038639;28;20028;-60
2024/01/21 14:02:33;;;;;;;7.80;6.37;;;;;;;;;;5053890;28;20064;-62
2024/01/21 14:04:59;;;;;;;7.90;6.33;;;;;;;;;;5054023;28;20051;-62
2024/01/21 14:07:25;;;;;;;8.07;5.97;;;;;;;;;;5054045;28;20721;-63
2024/01/21 14:09:51;;;;;;;8.50;7.43;;;;;;;;;;5053969;28;20028;-62
2024/01/21 14:12:18;;;;;;;8.20;6.57;;;;;;;;;;5054048;28;20559;-62
2024/01/21 14:14:44;;;;;;;7.47;6.63;;;;;;;;;;5054056;28;20028;-62
2024/01/21 14:17:11;;;;;;;8.17;6.03;;;;;;;;;;5054096;28;20120;-62
2024/01/21 14:19:38;;;;;;;9.13;7.23;;;;;;;;;;5053821;28;20050;-62
2024/01/21 14:22:04;;;;;;;9.23;6.57;;;;;;;;;;5054122;28;20108;-62
2024/01/21 14:24:31;;;;;;;11.40;6.53;;;;;;;;;;5053287;28;20045;-62
2024/01/21 14:26:57;;;;;;;8.47;7.10;;;;;;;;;;5053636;28;20029;-62
2024/01/21 14:29:31;;;;;;;12.67;7.00;;;;;;;;;;5049017;28;20036;-61
2024/01/21 14:31:57;;;;;;;10.20;6.50;;;;;;;;;;5042250;28;20039;-61
2024/01/21 14:34:24;;;;;;;10.30;7.10;;;;;;;;;;5044912;28;20026;-61
2024/01/21 14:36:50;;;;;;;7.73;6.60;;;;;;;;;;5033604;28;20356;-60
2024/01/21 14:39:16;;;;;;;8.80;6.30;;;;;;;;;;5033802;28;20463;-61
2024/01/21 14:41:42;;;;;;;8.47;6.47;;;;;;;;;;5035090;28;20025;-61
2024/01/21 14:44:08;;;;;;;7.77;6.90;;;;;;;;;;5052766;28;20541;-60
2024/01/21 14:46:34;;;;;;;8.50;6.93;;;;;;;;;;5053611;28;20074;-60